Time;durP1;ratioP1;P1;durP2;ratioP2;P2;SDS_P1;SDS_P2;PMS_P1;PMS_P2;Temp;Humidity;BMP_temperature;BMP_pressure;BME280_temperature;BME280_humidity;BME280_pressure;Samples;Min_cycle;Max_cycle;Signal;HPM_P1;HPM_P2
2023/10/26 00:00:26;;;;;;;28.35;13.00;;;;;;;7.84;100.00;99755.94;6078324;19;20018;-68
2023/10/26 00:02:31;;;;;;;31.30;12.95;;;;;;;7.80;100.00;99757.84;6079683;19;20007;-69
2023/10/26 00:04:33;;;;;;;30.92;12.63;;;;;;;7.76;100.00;99756.28;6085936;19;20123;-69
2023/10/26 00:06:38;;;;;;;29.60;12.55;;;;;;;7.70;100.00;99759.19;6086875;19;20030;-69
2023/10/26 00:08:40;;;;;;;29.13;11.82;;;;;;;7.68;100.00;99758.41;6084577;19;20006;-70
2023/10/26 00:10:46;;;;;;;28.55;11.80;;;;;;;7.62;100.00;99766.53;6084789;19;19999;-71
2023/10/26 00:12:51;;;;;;;31.80;13.80;;;;;;;7.61;100.00;99770.94;6085426;19;20002;-70
2023/10/26 00:14:58;;;;;;;30.98;12.95;;;;;;;7.58;100.00;99770.19;6083830;19;20414;-70
2023/10/26 00:17:03;;;;;;;31.67;13.57;;;;;;;7.55;100.00;99770.34;6084069;19;20013;-69
2023/10/26 00:19:08;;;;;;;32.53;13.68;;;;;;;7.55;100.00;99772.97;6075683;19;20451;-69
2023/10/26 00:21:13;;;;;;;29.60;14.00;;;;;;;7.52;100.00;99775.72;6084745;19;20027;-69
2023/10/26 00:23:15;;;;;;;38.88;14.23;;;;;;;7.49;100.00;99771.47;6081903;19;20582;-69
2023/10/26 00:25:21;;;;;;;29.45;11.77;;;;;;;7.47;100.00;99786.38;6082616;19;20011;-69
2023/10/26 00:27:26;;;;;;;34.83;14.85;;;;;;;7.44;100.00;99769.06;6082879;19;20078;-69
2023/10/26 00:29:31;;;;;;;34.53;14.65;;;;;;;7.40;100.00;99777.13;6082856;19;20002;-70
2023/10/26 00:31:38;;;;;;;30.27;12.23;;;;;;;7.34;100.00;99770.38;6074566;19;20006;-69
2023/10/26 00:33:46;;;;;;;33.97;13.27;;;;;;;7.29;100.00;99769.75;6083343;19;20478;-70
2023/10/26 00:35:54;;;;;;;33.60;15.50;;;;;;;7.25;100.00;99768.19;6082873;19;20369;-70
2023/10/26 00:37:59;;;;;;;29.70;12.73;;;;;;;7.25;100.00;99773.41;6084337;19;20347;-69
2023/10/26 00:40:04;;;;;;;31.45;12.23;;;;;;;7.21;100.00;99766.63;6081947;19;20034;-69
2023/10/26 00:42:06;;;;;;;32.65;13.63;;;;;;;7.18;100.00;99767.59;6083507;19;20006;-69
2023/10/26 00:44:11;;;;;;;32.40;13.57;;;;;;;7.19;100.00;99768.47;6082252;19;20470;-70
2023/10/26 00:46:16;;;;;;;30.35;13.85;;;;;;;7.16;100.00;99771.19;6082543;19;20263;-68
2023/10/26 00:48:25;;;;;;;30.55;13.10;;;;;;;7.13;100.00;99771.31;6080234;19;20031;-69
2023/10/26 00:50:28;;;;;;;36.70;12.98;;;;;;;7.08;100.00;99775.91;6078398;19;20006;-69
2023/10/26 00:52:35;;;;;;;30.63;13.00;;;;;;;7.06;100.00;99777.72;6078783;19;20656;-69
2023/10/26 00:54:43;;;;;;;28.90;12.40;;;;;;;7.01;100.00;99778.78;6081931;19;20024;-69
2023/10/26 00:56:50;;;;;;;35.70;11.98;;;;;;;6.98;100.00;99778.09;6081124;19;20377;-70
2023/10/26 00:58:56;;;;;;;29.80;13.02;;;;;;;6.95;100.00;99771.22;6082617;19;20481;-68
2023/10/26 01:01:01;;;;;;;25.10;11.85;;;;;;;6.92;100.00;99773.94;6080424;19;20006;-68
2023/10/26 01:03:07;;;;;;;28.92;12.35;;;;;;;6.87;100.00;99772.44;6071317;19;20471;-68
2023/10/26 01:05:15;;;;;;;31.08;12.02;;;;;;;6.81;100.00;99768.34;6082476;19;20287;-68
2023/10/26 01:07:21;;;;;;;24.70;11.52;;;;;;;6.79;100.00;99770.16;6081957;19;20014;-68
2023/10/26 01:09:27;;;;;;;27.58;11.20;;;;;;;6.77;100.00;99772.00;6080050;19;21114;-66
2023/10/26 01:11:32;;;;;;;25.08;11.63;;;;;;;6.79;100.00;99772.75;6080761;19;20018;-69
2023/10/26 01:13:38;;;;;;;26.58;11.00;;;;;;;6.73;100.00;99766.03;6082729;19;20010;-69
2023/10/26 01:15:43;;;;;;;24.05;9.80;;;;;;;6.66;100.00;99771.59;6082220;19;20038;-68
2023/10/26 01:17:46;;;;;;;24.42;11.27;;;;;;;6.66;100.00;99767.22;6081271;19;20570;-68
2023/10/26 01:19:50;;;;;;;28.23;11.07;;;;;;;6.70;100.00;99770.56;6076514;19;20019;-68
2023/10/26 01:21:58;;;;;;;25.15;10.32;;;;;;;6.68;100.00;99767.16;6082930;19;20010;-68
2023/10/26 01:24:03;;;;;;;25.38;10.15;;;;;;;6.64;100.00;99763.00;6084493;19;20003;-68
2023/10/26 01:26:08;;;;;;;23.60;9.07;;;;;;;6.59;100.00;99764.00;6075327;19;20006;-68
2023/10/26 01:28:13;;;;;;;31.83;12.63;;;;;;;6.62;100.00;99772.63;6085667;19;20037;-69
2023/10/26 01:30:18;;;;;;;26.50;10.93;;;;;;;6.58;100.00;99759.72;6083990;19;20010;-68
2023/10/26 01:32:23;;;;;;;23.50;9.80;;;;;;;6.54;100.00;99767.72;6082278;19;20419;-70
2023/10/26 01:34:28;;;;;;;25.17;10.38;;;;;;;6.52;100.00;99773.00;6083276;19;20010;-70
2023/10/26 01:36:34;;;;;;;24.60;9.90;;;;;;;6.46;100.00;99761.97;6083040;19;20806;-70
2023/10/26 01:38:42;;;;;;;25.20;10.00;;;;;;;6.48;100.00;99761.00;6082237;19;20041;-70
2023/10/26 01:40:48;;;;;;;30.30;12.85;;;;;;;6.48;100.00;99761.00;6081558;19;20078;-68
2023/10/26 01:42:53;;;;;;;26.50;12.30;;;;;;;6.44;100.00;99769.00;6079218;19;25755;-68
2023/10/26 01:44:58;;;;;;;22.88;11.45;;;;;;;6.42;100.00;99760.38;6081664;19;20598;-69
2023/10/26 01:47:03;;;;;;;28.75;10.98;;;;;;;6.40;100.00;99760.47;6076558;19;20382;-69
2023/10/26 01:49:09;;;;;;;27.15;12.63;;;;;;;6.38;100.00;99764.91;6078955;19;20510;-69
2023/10/26 01:51:14;;;;;;;23.75;10.52;;;;;;;6.40;100.00;99760.47;6078594;19;20015;-69
2023/10/26 01:53:21;;;;;;;32.03;12.15;;;;;;;6.43;100.00;99762.09;6075798;19;20045;-69
2023/10/26 01:55:29;;;;;;;29.50;12.02;;;;;;;6.43;100.00;99759.50;6080546;19;19998;-69
2023/10/26 01:57:34;;;;;;;28.02;10.82;;;;;;;6.44;100.00;99761.19;6073338;19;20033;-68
2023/10/26 01:59:40;;;;;;;21.45;9.77;;;;;;;6.41;100.00;99770.00;6079596;19;20764;-68
2023/10/26 02:01:45;;;;;;;30.73;12.52;;;;;;;6.40;100.00;99776.13;6081709;19;20095;-68
2023/10/26 02:03:50;;;;;;;27.70;10.50;;;;;;;6.37;100.00;99778.84;6069046;19;20017;-69
2023/10/26 02:05:56;;;;;;;30.92;11.95;;;;;;;6.36;100.00;99774.53;6080409;19;20010;-69
2023/10/26 02:08:01;;;;;;;25.98;10.85;;;;;;;6.34;100.00;99778.97;6080178;19;20011;-69
2023/10/26 02:10:07;;;;;;;33.47;10.70;;;;;;;6.36;100.00;99774.53;6079515;19;20719;-68
2023/10/26 02:12:15;;;;;;;21.50;10.68;;;;;;;6.33;100.00;99769.44;6081431;19;20083;-69
2023/10/26 02:14:20;;;;;;;26.13;9.88;;;;;;;6.34;100.00;99752.88;6080963;19;20739;-68
2023/10/26 02:16:25;;;;;;;20.67;8.88;;;;;;;6.34;100.00;99745.88;6082244;19;20011;-69
2023/10/26 02:18:30;;;;;;;20.92;8.93;;;;;;;6.33;100.00;99754.63;6079336;19;20043;-69
2023/10/26 02:20:36;;;;;;;23.05;9.10;;;;;;;6.34;100.00;99745.03;6078733;19;20005;-69
2023/10/26 02:22:41;;;;;;;26.30;10.50;;;;;;;6.33;100.00;99744.19;6076709;19;20079;-68
2023/10/26 02:24:45;;;;;;;22.30;10.30;;;;;;;6.33;100.00;99740.75;6085192;19;20003;-69
2023/10/26 02:26:50;;;;;;;19.95;9.23;;;;;;;6.33;100.00;99741.59;6086566;19;20307;-70
2023/10/26 02:29:00;;;;;;;22.00;7.68;;;;;;;6.32;100.00;99752.09;6078584;19;20063;-69
2023/10/26 02:31:06;;;;;;;24.73;8.80;;;;;;;6.32;100.00;99758.16;6085902;19;20033;-69
2023/10/26 02:33:08;;;;;;;24.52;10.60;;;;;;;6.30;100.00;99753.94;6087372;19;20123;-69
2023/10/26 02:35:13;;;;;;;22.73;10.23;;;;;;;6.26;100.00;99758.41;6083862;19;20009;-69
2023/10/26 02:37:20;;;;;;;16.67;7.80;;;;;;;6.28;100.00;99760.97;6085318;19;20013;-69
2023/10/26 02:39:26;;;;;;;23.45;8.75;;;;;;;6.27;100.00;99757.50;6086555;19;20029;-69
2023/10/26 02:41:31;;;;;;;16.63;7.50;;;;;;;6.27;100.00;99759.28;6087296;19;20003;-68
2023/10/26 02:43:36;;;;;;;16.20;7.85;;;;;;;6.29;100.00;99754.81;6085549;19;20013;-68
2023/10/26 02:45:41;;;;;;;17.63;8.88;;;;;;;6.31;100.00;99755.59;6084139;19;20011;-69
2023/10/26 02:47:46;;;;;;;20.13;8.25;;;;;;;6.31;100.00;99759.06;6086602;19;20033;-70
2023/10/26 02:49:51;;;;;;;23.15;9.82;;;;;;;6.29;100.00;99760.03;6086290;19;20014;-70
2023/10/26 02:51:56;;;;;;;18.60;8.43;;;;;;;6.30;100.00;99753.94;6083833;19;20073;-69
2023/10/26 02:54:01;;;;;;;18.55;8.68;;;;;;;6.31;100.00;99750.41;6083276;19;20005;-69
2023/10/26 02:56:07;;;;;;;19.65;8.88;;;;;;;6.33;100.00;99741.59;6083465;19;20010;-69
2023/10/26 02:58:11;;;;;;;25.42;9.57;;;;;;;6.33;100.00;99740.75;6086795;19;20011;-69
2023/10/26 03:00:17;;;;;;;21.08;9.02;;;;;;;6.33;100.00;99741.59;6087025;19;20019;-68
2023/10/26 03:02:25;;;;;;;24.30;9.98;;;;;;;6.33;100.00;99740.75;6075390;19;20517;-68
2023/10/26 03:04:30;;;;;;;17.25;8.85;;;;;;;6.32;100.00;99739.91;6076068;19;20006;-68
2023/10/26 03:06:39;;;;;;;18.17;8.80;;;;;;;6.33;100.00;99748.56;6084824;19;20074;-68
2023/10/26 03:08:44;;;;;;;18.17;8.00;;;;;;;6.31;100.00;99753.84;6078997;19;20494;-68
2023/10/26 03:10:49;;;;;;;26.52;9.68;;;;;;;6.34;100.00;99752.88;6085119;19;20006;-68
2023/10/26 03:12:53;;;;;;;22.30;10.90;;;;;;;6.33;100.00;99751.19;6074010;19;20387;-68
2023/10/26 03:14:56;;;;;;;19.77;8.63;;;;;;;6.31;100.00;99750.41;6083789;19;20054;-68
2023/10/26 03:17:01;;;;;;;32.08;10.38;;;;;;;6.30;100.00;99748.72;6083447;19;21635;-68
2023/10/26 03:19:09;;;;;;;20.98;9.95;;;;;;;6.29;100.00;99741.78;6075875;19;20086;-68
2023/10/26 03:21:15;;;;;;;24.00;10.88;;;;;;;6.28;100.00;99745.31;6081823;19;20031;-69
2023/10/26 03:23:20;;;;;;;29.83;11.70;;;;;;;6.25;100.00;99733.22;6084504;19;20010;-68
2023/10/26 03:25:24;;;;;;;26.80;10.13;;;;;;;6.24;100.00;99728.06;6081865;19;20074;-68
2023/10/26 03:27:30;;;;;;;20.95;9.77;;;;;;;6.22;100.00;99728.16;6084374;19;20002;-69
2023/10/26 03:29:35;;;;;;;19.77;8.73;;;;;;;6.18;100.00;99723.09;6073610;19;20077;-69
2023/10/26 03:31:41;;;;;;;20.70;9.45;;;;;;;6.20;100.00;99729.13;6082374;19;20487;-68
2023/10/26 03:33:46;;;;;;;24.90;10.48;;;;;;;6.19;100.00;99730.00;6081716;19;20010;-69
2023/10/26 03:35:54;;;;;;;21.60;9.32;;;;;;;6.15;100.00;99724.91;6083034;19;20014;-69
2023/10/26 03:37:59;;;;;;;26.77;9.43;;;;;;;6.17;100.00;99732.69;6084124;19;20073;-69
2023/10/26 03:40:04;;;;;;;26.35;9.85;;;;;;;6.20;100.00;99731.72;6083201;19;20041;-68
2023/10/26 03:42:09;;;;;;;22.65;11.32;;;;;;;6.17;100.00;99734.47;6082490;19;20090;-68
2023/10/26 03:44:15;;;;;;;23.63;10.25;;;;;;;6.18;100.00;99730.94;6082669;19;20074;-68
2023/10/26 03:46:20;;;;;;;24.08;10.57;;;;;;;6.15;100.00;99734.50;6083317;19;20027;-68
2023/10/26 03:48:28;;;;;;;22.05;10.00;;;;;;;6.15;100.00;99730.13;6084772;19;20064;-68
2023/10/26 03:50:33;;;;;;;22.67;10.00;;;;;;;6.15;100.00;99732.75;6082538;19;20011;-69
2023/10/26 03:52:40;;;;;;;26.85;10.32;;;;;;;6.15;100.00;99727.53;6079722;19;20034;-69
2023/10/26 03:54:45;;;;;;;24.00;10.00;;;;;;;6.17;100.00;99724.88;6083653;19;20356;-68
2023/10/26 03:56:50;;;;;;;23.88;11.00;;;;;;;6.19;100.00;99722.19;6081559;19;20006;-69
2023/10/26 03:58:55;;;;;;;25.88;10.20;;;;;;;6.19;100.00;99723.06;6085718;19;20038;-69
2023/10/26 04:01:00;;;;;;;19.00;9.15;;;;;;;6.17;100.00;99724.88;6074788;19;20014;-68
2023/10/26 04:03:05;;;;;;;24.67;11.20;;;;;;;6.16;100.00;99723.16;6082033;19;20010;-68
2023/10/26 04:05:11;;;;;;;33.67;11.07;;;;;;;6.20;100.00;99714.31;6077861;19;20393;-71
2023/10/26 04:07:17;;;;;;;26.73;9.60;;;;;;;6.20;100.00;99713.47;6083604;19;20043;-68
2023/10/26 04:09:25;;;;;;;22.58;9.77;;;;;;;6.21;100.00;99705.56;6085007;19;20013;-68
2023/10/26 04:11:32;;;;;;;27.17;12.35;;;;;;;6.24;100.00;99705.47;6085644;19;20007;-68
2023/10/26 04:13:37;;;;;;;25.17;10.40;;;;;;;6.26;100.00;99702.78;6086767;19;20418;-68
2023/10/26 04:15:42;;;;;;;24.85;10.18;;;;;;;6.28;100.00;99696.56;6085671;19;20087;-68
2023/10/26 04:17:50;;;;;;;23.77;9.35;;;;;;;6.29;100.00;99700.03;6087304;19;20025;-68
2023/10/26 04:20:01;;;;;;;25.65;10.60;;;;;;;6.28;100.00;99693.13;6085769;19;20002;-68
2023/10/26 04:22:06;;;;;;;23.05;9.40;;;;;;;6.27;100.00;99692.28;6085493;19;20475;-68
2023/10/26 04:24:11;;;;;;;23.75;10.73;;;;;;;6.26;100.00;99698.41;6076694;19;20038;-68
2023/10/26 04:26:18;;;;;;;21.45;9.60;;;;;;;6.26;100.00;99697.56;6085316;19;20019;-69
2023/10/26 04:28:23;;;;;;;21.73;9.73;;;;;;;6.23;100.00;99697.69;6087348;19;20025;-69
2023/10/26 04:30:28;;;;;;;31.75;11.57;;;;;;;6.24;100.00;99700.25;6086447;19;20007;-69
2023/10/26 04:32:34;;;;;;;19.65;9.57;;;;;;;6.22;100.00;99696.00;6086611;19;20372;-69
2023/10/26 04:34:38;;;;;;;23.05;10.15;;;;;;;6.24;100.00;99701.97;6088234;19;20002;-69
2023/10/26 04:36:46;;;;;;;23.60;10.45;;;;;;;6.24;100.00;99702.84;6084744;19;20362;-68
2023/10/26 04:38:49;;;;;;;19.05;8.38;;;;;;;6.22;100.00;99696.00;6084664;19;20011;-68
2023/10/26 04:40:54;;;;;;;19.58;10.13;;;;;;;6.23;100.00;99702.91;6077153;19;19999;-68
2023/10/26 04:43:02;;;;;;;23.38;9.60;;;;;;;6.23;100.00;99695.06;6082965;19;20006;-68
2023/10/26 04:45:09;;;;;;;25.60;10.75;;;;;;;6.24;100.00;99683.72;6080003;19;20032;-69
2023/10/26 04:47:14;;;;;;;25.13;10.75;;;;;;;6.22;100.00;99690.78;6082575;19;20550;-69
2023/10/26 04:49:19;;;;;;;22.40;8.77;;;;;;;6.22;100.00;99693.38;6084030;19;20061;-69
2023/10/26 04:51:21;;;;;;;20.65;8.48;;;;;;;6.22;100.00;99688.16;6081460;19;20062;-69
2023/10/26 04:53:26;;;;;;;20.42;8.60;;;;;;;6.16;100.00;99686.63;6076383;19;20011;-69
2023/10/26 04:55:33;;;;;;;23.42;9.43;;;;;;;6.18;100.00;99697.03;6082208;19;20010;-68
2023/10/26 04:57:39;;;;;;;22.05;9.43;;;;;;;6.12;100.00;99695.50;6084578;19;20003;-69
2023/10/26 04:59:46;;;;;;;29.20;12.32;;;;;;;6.14;100.00;99697.16;6072834;19;20105;-68
2023/10/26 05:01:51;;;;;;;33.92;12.50;;;;;;;6.13;100.00;99685.03;6081894;19;20045;-69
2023/10/26 05:03:56;;;;;;;35.50;14.55;;;;;;;6.12;100.00;99688.53;6082664;19;20046;-70
2023/10/26 05:06:02;;;;;;;27.05;12.68;;;;;;;6.09;100.00;99691.25;6080903;19;20007;-68
2023/10/26 05:08:08;;;;;;;36.03;12.48;;;;;;;6.05;100.00;99683.63;6076334;19;20548;-70
2023/10/26 05:10:13;;;;;;;30.00;11.38;;;;;;;6.01;100.00;99682.06;6080198;19;20044;-68
2023/10/26 05:12:18;;;;;;;30.70;11.60;;;;;;;5.98;100.00;99696.06;6075496;19;20006;-67
2023/10/26 05:14:23;;;;;;;28.73;11.32;;;;;;;5.98;100.00;99695.19;6080948;19;20007;-69
2023/10/26 05:16:30;;;;;;;27.02;11.80;;;;;;;5.95;100.00;99693.59;6077235;19;20010;-69
2023/10/26 05:18:35;;;;;;;29.80;12.30;;;;;;;5.93;100.00;99691.03;6081858;19;20013;-68
2023/10/26 05:20:40;;;;;;;38.15;13.68;;;;;;;5.88;100.00;99695.53;6079779;19;20007;-70
2023/10/26 05:22:45;;;;;;;27.00;11.57;;;;;;;5.84;100.00;99698.34;6084313;19;20003;-69
2023/10/26 05:24:51;;;;;;;28.70;12.35;;;;;;;5.80;100.00;99688.94;6075236;19;20015;-69
2023/10/26 05:27:00;;;;;;;28.08;12.20;;;;;;;5.78;100.00;99690.75;6077076;19;20007;-67
2023/10/26 05:29:05;;;;;;;27.65;12.60;;;;;;;5.76;100.00;99697.78;6082259;19;20090;-68
2023/10/26 05:31:08;;;;;;;29.02;13.18;;;;;;;5.75;100.00;99696.94;6078807;19;20099;-68
2023/10/26 05:33:15;;;;;;;31.38;13.02;;;;;;;5.71;100.00;99688.41;6080563;19;20006;-68
2023/10/26 05:35:19;;;;;;;26.38;11.68;;;;;;;5.76;100.00;99688.19;6080405;19;20022;-68
2023/10/26 05:37:23;;;;;;;29.42;12.77;;;;;;;5.83;100.00;99679.25;6082002;19;20577;-70
2023/10/26 05:39:28;;;;;;;46.67;16.48;;;;;;;5.97;100.00;99680.47;6082121;19;20152;-69
2023/10/26 05:41:34;;;;;;;40.45;16.40;;;;;;;6.13;100.00;99674.59;6079205;19;20585;-69
2023/10/26 05:43:39;;;;;;;29.50;11.80;;;;;;;6.12;100.00;99679.88;6083085;19;20010;-69
2023/10/26 05:45:44;;;;;;;26.98;10.65;;;;;;;6.15;100.00;99666.69;6083405;19;20522;-70
2023/10/26 05:47:54;;;;;;;30.85;12.27;;;;;;;6.20;100.00;99674.34;6083207;19;20014;-69
2023/10/26 05:50:03;;;;;;;64.85;13.48;;;;;;;6.24;100.00;99674.16;6083022;19;20039;-69
2023/10/26 05:52:08;;;;;;;28.95;12.63;;;;;;;6.24;100.00;99670.66;6082274;19;20440;-69
2023/10/26 05:54:13;;;;;;;66.00;15.45;;;;;;;6.29;100.00;99676.53;6082141;19;20434;-69
2023/10/26 05:56:19;;;;;;;37.05;11.77;;;;;;;6.32;100.00;99672.06;6081239;19;20866;-69
2023/10/26 05:58:24;;;;;;;34.80;13.32;;;;;;;6.45;100.00;99672.41;6078870;19;20007;-68
2023/10/26 06:00:29;;;;;;;45.00;15.25;;;;;;;6.52;100.00;99673.81;6087183;19;20002;-69
2023/10/26 06:02:34;;;;;;;30.40;11.48;;;;;;;6.58;100.00;99673.59;6085638;19;20011;-68
2023/10/26 06:04:39;;;;;;;35.38;13.27;;;;;;;6.61;100.00;99672.59;6086498;19;20014;-69
2023/10/26 06:06:46;;;;;;;60.80;14.75;;;;;;;6.67;100.00;99663.66;6090512;19;20003;-68
2023/10/26 06:08:54;;;;;;;59.30;15.75;;;;;;;6.74;100.00;99658.09;6078375;19;20034;-69
2023/10/26 06:10:59;;;;;;;36.88;14.15;;;;;;;6.82;100.00;99642.94;6080122;19;20016;-69
2023/10/26 06:13:07;;;;;;;41.08;14.52;;;;;;;6.88;100.00;99647.03;6085410;19;20014;-68
2023/10/26 06:15:12;;;;;;;35.30;15.68;;;;;;;6.90;100.00;99655.66;6085207;19;20078;-69
2023/10/26 06:17:20;;;;;;;32.83;14.10;;;;;;;7.02;100.00;99659.47;6085941;19;20010;-70
2023/10/26 06:19:25;;;;;;;42.50;15.45;;;;;;;7.06;100.00;99660.19;6086833;19;20307;-69
2023/10/26 06:21:27;;;;;;;47.80;15.18;;;;;;;7.07;100.00;99654.06;6084311;19;20006;-69
2023/10/26 06:23:35;;;;;;;41.35;12.68;;;;;;;7.05;100.00;99656.72;6084031;19;20006;-68
2023/10/26 06:25:41;;;;;;;44.53;15.45;;;;;;;7.07;100.00;99654.06;6087887;19;20010;-71
2023/10/26 06:27:44;;;;;;;50.38;16.90;;;;;;;7.11;100.00;99650.38;6075534;19;20011;-69
2023/10/26 06:29:57;;;;;;;38.28;15.38;;;;;;;7.15;100.00;99651.94;6084679;19;20034;-69
2023/10/26 06:32:04;;;;;;;37.95;15.13;;;;;;;7.17;100.00;99650.97;6087393;19;20027;-70
2023/10/26 06:34:09;;;;;;;56.47;17.60;;;;;;;7.14;100.00;99655.50;6087663;19;20352;-68
2023/10/26 06:36:14;;;;;;;81.28;17.95;;;;;;;7.14;100.00;99655.50;6089390;19;20003;-69
2023/10/26 06:38:17;;;;;;;87.55;21.75;;;;;;;7.15;100.00;99662.41;6086459;19;20014;-69
2023/10/26 06:40:26;;;;;;;64.05;17.52;;;;;;;7.13;100.00;99661.59;6087396;19;20150;-69
2023/10/26 06:42:31;;;;;;;53.13;17.92;;;;;;;7.16;100.00;99664.94;6085370;19;20023;-69
2023/10/26 06:44:39;;;;;;;47.50;15.75;;;;;;;7.25;100.00;99668.91;6084845;19;20014;-68
2023/10/26 06:46:44;;;;;;;39.25;17.23;;;;;;;7.28;100.00;99663.53;6087187;19;20495;-69
2023/10/26 06:48:49;;;;;;;53.30;19.15;;;;;;;7.29;100.00;99667.81;6084912;19;20007;-69
2023/10/26 06:51:00;;;;;;;49.10;17.40;;;;;;;7.28;100.00;99668.75;6084262;19;20007;-69
2023/10/26 06:53:05;;;;;;;55.47;20.33;;;;;;;7.34;100.00;99676.31;6078992;19;21207;-69
2023/10/26 06:55:14;;;;;;;59.63;17.83;;;;;;;7.33;100.00;99666.78;6065002;19;20082;-69
2023/10/26 06:57:37;;;;;;;51.88;17.30;;;;;;;7.39;100.00;99663.88;6087262;19;20045;-70
2023/10/26 06:59:42;;;;;;;46.80;17.02;;;;;;;7.42;100.00;99655.88;6084909;19;20022;-70
2023/10/26 07:01:47;;;;;;;51.25;17.98;;;;;;;7.42;100.00;99660.28;6086278;19;20003;-69
2023/10/26 07:04:12;;;;;;;46.13;16.10;;;;;;;7.44;100.00;99667.13;6083162;19;20044;-68
2023/10/26 07:06:19;;;;;;;59.80;16.17;;;;;;;7.45;100.00;99662.75;6085444;19;20006;-69
2023/10/26 07:08:24;;;;;;;50.72;15.75;;;;;;;7.47;100.00;99663.53;6078862;19;20011;-69
2023/10/26 07:10:27;;;;;;;67.90;19.90;;;;;;;7.50;100.00;99671.22;6082641;19;20510;-69
2023/10/26 07:12:32;;;;;;;51.25;18.02;;;;;;;7.55;100.00;99666.63;6084309;19;20003;-69
2023/10/26 07:14:40;;;;;;;55.45;16.83;;;;;;;7.58;100.00;99676.97;6085761;19;20010;-69
2023/10/26 07:16:45;;;;;;;89.32;19.67;;;;;;;7.59;100.00;99677.81;6085575;19;20429;-71
2023/10/26 07:18:50;;;;;;;54.13;17.35;;;;;;;7.68;100.00;99677.34;6084821;19;20329;-68
2023/10/26 07:20:55;;;;;;;52.17;18.60;;;;;;;7.71;100.00;99671.97;6088579;19;20106;-69
2023/10/26 07:23:00;;;;;;;57.53;19.25;;;;;;;7.73;100.00;99678.00;6086021;19;20009;-69
2023/10/26 07:25:06;;;;;;;49.13;17.75;;;;;;;7.81;100.00;99673.22;6083672;19;20020;-69
2023/10/26 07:27:11;;;;;;;59.55;21.25;;;;;;;7.81;100.00;99669.78;6077150;19;20007;-73
2023/10/26 07:29:16;;;;;;;69.15;22.20;;;;;;;7.82;100.00;99674.94;6085812;19;20014;-69
2023/10/26 07:31:25;;;;;;;57.35;19.70;;;;;;;7.91;100.00;99678.88;6084231;19;20034;-69
2023/10/26 07:33:30;;;;;;;55.67;17.85;;;;;;;7.95;100.00;99676.94;6084010;19;20080;-69
2023/10/26 07:35:40;;;;;;;63.50;19.23;;;;;;;7.99;100.00;99673.28;6084316;19;20475;-69
2023/10/26 07:37:45;;;;;;;76.70;20.25;;;;;;;7.97;100.00;99672.50;6084134;19;20030;-68
2023/10/26 07:40:07;;;;;;;82.35;20.10;;;;;;;7.96;100.00;99670.81;6084859;19;20023;-69
2023/10/26 07:42:32;;;;;;;;;;;;;;;8.06;100.00;99672.06;6085104;19;20430;-68
2023/10/26 07:44:37;;;;;;;57.58;18.60;;;;;;;8.04;100.00;99673.91;6085588;19;20353;-69
2023/10/26 07:46:45;;;;;;;63.80;18.27;;;;;;;8.03;100.00;99673.06;6085662;19;20003;-69
2023/10/26 07:48:50;;;;;;;61.88;17.73;;;;;;;8.05;100.00;99670.34;6081985;19;20045;-69
2023/10/26 07:50:55;;;;;;;66.05;18.92;;;;;;;8.03;100.00;99678.31;6083557;19;20510;-69
2023/10/26 07:53:00;;;;;;;60.30;19.73;;;;;;;8.07;100.00;99681.59;6083010;19;20106;-69
2023/10/26 07:55:06;;;;;;;60.80;17.95;;;;;;;8.06;100.00;99680.75;6078862;19;20034;-69
2023/10/26 07:57:08;;;;;;;58.05;17.23;;;;;;;8.08;100.00;99676.31;6075839;19;20014;-68
2023/10/26 07:59:13;;;;;;;49.28;15.57;;;;;;;8.16;100.00;99673.28;6082910;19;20014;-68
2023/10/26 08:01:19;;;;;;;60.00;18.08;;;;;;;8.20;100.00;99674.00;6082111;19;20007;-72
2023/10/26 08:03:27;;;;;;;62.90;18.70;;;;;;;8.27;100.00;99671.00;6082937;19;20085;-72
2023/10/26 08:05:33;;;;;;;65.20;19.52;;;;;;;8.29;100.00;99671.78;6084058;19;20030;-71
2023/10/26 08:07:39;;;;;;;68.68;20.95;;;;;;;8.35;100.00;99673.25;6084294;19;20554;-71
2023/10/26 08:09:44;;;;;;;68.63;18.75;;;;;;;8.39;100.00;99674.81;6084322;19;20144;-73
2023/10/26 08:11:49;;;;;;;63.00;19.17;;;;;;;8.40;100.00;99675.66;6083697;19;20011;-70
2023/10/26 08:13:55;;;;;;;62.95;17.77;;;;;;;8.43;100.00;99672.91;6083787;19;20006;-71
2023/10/26 08:16:00;;;;;;;61.58;19.23;;;;;;;8.45;100.00;99677.13;6085414;19;20451;-71
2023/10/26 08:18:27;;;;;;;73.70;18.27;;;;;;;8.49;100.00;99670.81;6083027;19;20319;-71
2023/10/26 08:20:32;;;;;;;58.63;18.27;;;;;;;8.59;100.00;99665.13;6081862;19;19999;-72
2023/10/26 08:22:38;;;;;;;63.03;22.13;;;;;;;8.55;100.00;99669.63;6084034;19;20014;-71
2023/10/26 08:24:45;;;;;;;57.63;17.92;;;;;;;8.60;100.00;99667.63;6084776;19;20475;-72
2023/10/26 08:26:51;;;;;;;68.65;19.90;;;;;;;8.66;100.00;99661.22;6084467;19;20010;-72
2023/10/26 08:28:56;;;;;;;70.72;19.27;;;;;;;8.64;100.00;99674.41;6085933;19;20014;-72
2023/10/26 08:31:17;;;;;;;54.13;15.35;;;;;;;8.62;100.00;99675.44;6079081;19;20145;-71
2023/10/26 08:33:22;;;;;;;63.45;19.10;;;;;;;8.67;100.00;99668.19;6087272;19;20570;-73
2023/10/26 08:35:29;;;;;;;75.35;20.27;;;;;;;8.76;100.00;99676.38;6084373;19;20082;-71
2023/10/26 08:37:34;;;;;;;71.93;20.45;;;;;;;8.85;100.00;99682.09;6085325;19;20022;-71
2023/10/26 08:39:39;;;;;;;76.93;21.90;;;;;;;8.91;100.00;99684.41;6084204;19;20018;-71
2023/10/26 08:41:51;;;;;;;70.22;20.25;;;;;;;8.96;100.00;99682.38;6081472;19;20002;-73
2023/10/26 08:43:56;;;;;;;77.03;19.52;;;;;;;9.01;100.00;99683.00;6082688;19;20557;-72
2023/10/26 08:46:03;;;;;;;61.28;16.90;;;;;;;9.05;100.00;99678.44;6084614;19;20003;-70
2023/10/26 08:48:08;;;;;;;58.30;17.08;;;;;;;9.06;100.00;99682.72;6085883;19;20017;-74
2023/10/26 08:50:16;;;;;;;67.13;20.23;;;;;;;9.14;100.00;99675.34;6083672;19;20011;-73
2023/10/26 08:52:24;;;;;;;60.60;18.17;;;;;;;9.15;100.00;99680.47;6081478;19;20014;-71
2023/10/26 08:54:29;;;;;;;63.90;19.55;;;;;;;9.07;100.00;99682.66;6083388;19;20587;-71
2023/10/26 08:56:34;;;;;;;60.55;17.55;;;;;;;9.16;100.00;99681.31;6085300;19;20388;-71
2023/10/26 08:58:42;;;;;;;62.42;17.65;;;;;;;9.23;100.00;99683.53;6077780;19;20047;-72
2023/10/26 09:00:47;;;;;;;62.22;20.73;;;;;;;9.14;100.00;99673.56;6082838;19;20023;-71
2023/10/26 09:02:52;;;;;;;67.68;19.45;;;;;;;9.13;100.00;99678.88;6084513;19;20066;-71
2023/10/26 09:05:08;;;;;;;72.05;20.58;;;;;;;9.19;100.00;99665.44;6075620;19;20389;-73
2023/10/26 09:07:13;;;;;;;65.35;19.30;;;;;;;9.26;100.00;99663.34;6085610;19;20569;-69
2023/10/26 09:09:21;;;;;;;70.18;17.88;;;;;;;9.18;100.00;99663.75;6079953;19;20042;-70
2023/10/26 09:11:25;;;;;;;69.13;17.20;;;;;;;9.33;100.00;99667.31;6087826;19;20467;-71
2023/10/26 09:13:33;;;;;;;81.70;22.30;;;;;;;9.52;100.00;99668.00;6084665;19;20006;-71
2023/10/26 09:15:49;;;;;;;70.15;18.13;;;;;;;9.57;100.00;99667.75;6083062;19;20102;-71
2023/10/26 09:17:57;;;;;;;72.03;22.00;;;;;;;9.70;100.00;99665.31;6082678;19;20012;-72
2023/10/26 09:20:20;;;;;;;75.53;20.13;;;;;;;9.71;100.00;99664.34;6083219;19;20014;-72
2023/10/26 09:22:38;;;;;;;71.40;19.75;;;;;;;9.72;100.00;99660.81;6079906;19;20014;-72
2023/10/26 09:24:45;;;;;;;79.88;22.67;;;;;;;9.81;100.00;99660.28;6082916;19;20062;-71
2023/10/26 09:26:48;;;;;;;78.65;21.27;;;;;;;9.78;100.00;99660.47;6083039;19;20007;-72
2023/10/26 09:28:54;;;;;;;73.43;20.65;;;;;;;9.69;100.00;99648.72;6083238;19;20399;-72
2023/10/26 09:31:02;;;;;;;76.90;20.95;;;;;;;9.77;100.00;99651.75;6080815;19;20033;-71
2023/10/26 09:33:08;;;;;;;83.60;20.73;;;;;;;9.73;100.00;99644.97;6088057;19;20674;-71
2023/10/26 09:35:25;;;;;;;67.90;21.60;;;;;;;9.75;100.00;99642.28;6087748;19;20008;-71
2023/10/26 09:37:30;;;;;;;69.47;19.77;;;;;;;9.69;100.00;99640.84;5984054;19;2005072;-72
2023/10/26 09:39:38;;;;;;;69.35;21.45;;;;;;;9.60;100.00;99642.19;6090183;19;20007;-72
2023/10/26 09:41:46;;;;;;;78.47;21.15;;;;;;;9.62;100.00;99635.09;6088471;19;20226;-72